首页
METAR-TAF:

METAR-TAF

机场 :

索契國際機場

索契, 俄罗斯

纬度: 43-26N, 经度: 039-54E, 海拔: 16米

当前天气观测

该预报发布于21分钟前的21:00 UTC
风速4节,风向东北,在北转西北之间变化
温度 18°C
湿度 68%
气压 1014 hPa
能见度10公里或以上

METAR: URSS 062100Z 04002MPS 330V090 9999 NSC 18/12 Q1014 R06/010070 R02/010070 NOSIG RMK R02/04002MPS QFE759

时间: 01:21 (21:21 UTC)

预报

该预报发布于1小时和26分钟前的19:55 UTC
预报有效从06日的 21点(UTC)到 07日的 21点(UTC)
风速10节,风向东北
能见度10公里或以上
成为
从 07日的 05点(UTC)到 07日的 06点(UTC)
风速10节,风向西南,有时为19节阵风
成为
从 07日的 09点(UTC)到 07日的 10点(UTC)
风速10节,风向西,有时为19节阵风
少量云层高于4000英尺
成为
从 07日的 16点(UTC)到 07日的 18点(UTC)
风速10节,风向东转东北

TAF: URSS 061955Z 0621/0721 05005MPS 9999 NSC BECMG 0705/0706 23005G10MPS BECMG 0709/0710 28005G10MPS FEW040 BECMG 0716/0718 06005MPS NSC

超过4000个机场的气象观测和天气预报(METAR&TAF报告)。

可查询的气象台以黄色和红色小点在地图上表示。

将鼠标移到小点上方,可查看气象台名称。

然后点击查看天气观测和预报。

如需切换地图:点击带黑十字的绿色按钮放大地图;点击带横线的绿色按钮缩小地图;或者点击绿色箭头查看邻近地区的地图。


METAR-TAF: